createdAt,value
2023-06-12T00:01:26.573Z,71.80
2023-06-12T00:03:57.164Z,71.20
2023-06-12T00:06:24.979Z,71.30
2023-06-12T00:08:52.283Z,71.60
2023-06-12T00:11:19.332Z,73.20
2023-06-12T00:13:48.560Z,72.50
2023-06-12T00:16:17.095Z,73.70
2023-06-12T00:18:44.875Z,73.60
2023-06-12T00:21:13.070Z,72.20
2023-06-12T00:23:41.381Z,72.80
2023-06-12T00:26:10.334Z,73.40
2023-06-12T00:28:37.214Z,72.90
2023-06-12T00:31:04.546Z,72.10
2023-06-12T00:33:32.082Z,71.90
2023-06-12T00:35:58.977Z,73.20
2023-06-12T00:38:26.561Z,72.80
2023-06-12T00:40:53.524Z,72.80
2023-06-12T00:43:20.441Z,72.80
2023-06-12T00:45:48.833Z,72.90
2023-06-12T00:48:17.164Z,73.70
2023-06-12T00:50:46.529Z,73.50
2023-06-12T00:53:14.018Z,74.50
2023-06-12T00:55:41.344Z,75.40
2023-06-12T00:58:08.377Z,76.50
2023-06-12T01:00:39.525Z,76.70
2023-06-12T01:03:09.188Z,77.10
2023-06-12T01:05:38.626Z,77.10
2023-06-12T01:08:17.355Z,78.30
2023-06-12T01:10:54.559Z,79.20
2023-06-12T01:13:22.543Z,79.10
2023-06-12T01:15:50.650Z,79.80
2023-06-12T01:18:18.325Z,80.40
2023-06-12T01:20:45.788Z,81.00
2023-06-12T01:23:37.362Z,82.10
2023-06-12T01:26:37.957Z,82.40
2023-06-12T01:29:11.251Z,83.90
2023-06-12T01:32:00.725Z,84.30
2023-06-12T01:34:52.520Z,86.70
2023-06-12T01:37:50.752Z,87.50
2023-06-12T01:40:19.374Z,89.90
2023-06-12T01:42:46.816Z,90.40
2023-06-12T01:45:13.936Z,90.70
2023-06-12T01:47:40.926Z,91.00
2023-06-12T01:50:10.203Z,91.10
2023-06-12T01:52:37.310Z,92.00
2023-06-12T01:55:05.975Z,93.10
2023-06-12T01:57:34.145Z,93.40
2023-06-12T02:00:01.553Z,94.20
2023-06-12T02:02:28.682Z,95.30
2023-06-12T02:04:55.803Z,96.20
2023-06-12T02:07:22.963Z,96.80
2023-06-12T02:09:49.861Z,98.10
2023-06-12T02:12:16.963Z,98.10
2023-06-12T02:14:43.884Z,98.20
2023-06-12T02:17:15.453Z,98.70
2023-06-12T02:19:42.441Z,98.30
2023-06-12T02:22:09.449Z,99.00
2023-06-12T02:24:36.963Z,99.90
2023-06-12T02:27:04.730Z,99.90
2023-06-12T02:29:32.310Z,99.90
2023-06-12T02:31:59.546Z,99.90
2023-06-12T02:34:27.069Z,99.90
2023-06-12T02:36:54.160Z,99.90
2023-06-12T02:39:21.103Z,99.90
2023-06-12T02:41:49.694Z,99.90
2023-06-12T02:44:17.280Z,99.90
2023-06-12T02:47:10.747Z,99.90
2023-06-12T02:49:39.607Z,99.90
2023-06-12T02:52:07.423Z,99.90
2023-06-12T02:54:37.570Z,99.90
2023-06-12T02:57:04.761Z,99.90
2023-06-12T02:59:32.089Z,99.90
2023-06-12T03:01:58.982Z,99.90
2023-06-12T03:04:26.360Z,99.90
2023-06-12T03:06:54.808Z,99.90
2023-06-12T03:09:23.400Z,99.90
2023-06-12T03:11:55.798Z,99.90
2023-06-12T03:14:23.179Z,99.90
2023-06-12T03:16:50.603Z,99.90
2023-06-12T03:19:18.287Z,99.90
2023-06-12T03:21:45.558Z,99.90
2023-06-12T03:24:15.000Z,99.90
2023-06-12T03:26:43.304Z,99.90
2023-06-12T03:29:11.260Z,99.90
2023-06-12T03:31:38.830Z,99.90
2023-06-12T03:34:06.642Z,99.90
2023-06-12T03:36:38.356Z,99.90
2023-06-12T03:39:06.081Z,99.90
2023-06-12T03:41:33.857Z,99.90
2023-06-12T03:44:00.961Z,99.90
2023-06-12T03:46:32.234Z,99.90
2023-06-12T03:48:59.663Z,99.90
2023-06-12T03:51:27.175Z,99.90
2023-06-12T03:53:54.268Z,99.90
2023-06-12T03:56:21.204Z,99.90
2023-06-12T03:58:48.305Z,99.90
2023-06-12T04:01:15.250Z,99.90
2023-06-12T04:03:46.046Z,99.90
2023-06-12T04:06:13.510Z,99.90
2023-06-12T04:08:41.149Z,99.90
2023-06-12T04:11:15.436Z,99.90
2023-06-12T04:13:42.631Z,99.90
2023-06-12T04:16:09.615Z,99.90
2023-06-12T04:18:39.019Z,99.90
2023-06-12T04:21:06.520Z,99.90
2023-06-12T04:23:33.977Z,99.90
2023-06-12T04:26:06.338Z,99.90
2023-06-12T04:28:34.943Z,99.90
2023-06-12T04:31:02.506Z,99.90
2023-06-12T04:33:33.862Z,99.90
2023-06-12T04:36:03.202Z,99.90
2023-06-12T04:38:37.887Z,99.90
2023-06-12T04:41:04.865Z,99.90
2023-06-12T04:43:31.719Z,99.90
2023-06-12T04:45:58.713Z,99.90
2023-06-12T04:48:26.042Z,99.90
2023-06-12T04:50:54.541Z,99.90
2023-06-12T04:53:29.159Z,99.90
2023-06-12T04:55:57.369Z,99.70
2023-06-12T04:58:24.369Z,97.00
2023-06-12T05:00:52.285Z,94.00
2023-06-12T05:03:19.476Z,91.10
2023-06-12T05:05:47.154Z,90.50
2023-06-12T05:08:14.743Z,86.50
2023-06-12T05:10:41.925Z,87.90
2023-06-12T05:13:08.985Z,90.20
2023-06-12T05:15:35.983Z,90.50
2023-06-12T05:18:03.243Z,89.10
2023-06-12T05:20:30.464Z,87.40
2023-06-12T05:22:57.493Z,89.20
2023-06-12T05:25:24.572Z,80.30
2023-06-12T05:27:51.518Z,79.30
2023-06-12T05:30:18.876Z,76.20
2023-06-12T05:32:46.263Z,71.60
2023-06-12T05:35:13.221Z,67.30
2023-06-12T05:37:40.277Z,65.20
2023-06-12T05:40:10.345Z,63.10
2023-06-12T05:42:37.777Z,60.70
2023-06-12T05:45:08.741Z,59.60
2023-06-12T05:47:37.102Z,59.20
2023-06-12T05:50:04.749Z,55.80
2023-06-12T05:52:31.645Z,54.30
2023-06-12T05:54:58.528Z,54.80
2023-06-12T05:57:25.531Z,52.60
2023-06-12T05:59:52.751Z,54.00
2023-06-12T06:02:20.258Z,51.00
2023-06-12T06:04:47.946Z,49.80
2023-06-12T06:07:18.504Z,47.00
2023-06-12T06:09:46.128Z,48.40
2023-06-12T06:12:13.050Z,47.20
2023-06-12T06:14:40.316Z,46.40
2023-06-12T06:17:07.576Z,47.40
2023-06-12T06:19:34.862Z,46.70
2023-06-12T06:22:01.833Z,46.60
2023-06-12T06:24:28.807Z,47.40
2023-06-12T06:26:56.349Z,44.70
2023-06-12T06:29:23.604Z,44.30
2023-06-12T06:31:50.652Z,42.70
2023-06-12T06:34:18.076Z,43.20
2023-06-12T06:36:45.027Z,41.60
2023-06-12T06:39:12.254Z,40.40
2023-06-12T06:41:39.461Z,38.40
2023-06-12T06:44:06.522Z,38.90
2023-06-12T06:46:33.631Z,36.70
2023-06-12T06:49:00.688Z,36.50
2023-06-12T06:51:27.626Z,36.50
2023-06-12T06:53:54.539Z,39.00
2023-06-12T06:56:21.407Z,37.20
2023-06-12T06:58:49.892Z,32.80
2023-06-12T07:01:18.320Z,30.40
2023-06-12T07:03:45.265Z,28.70
2023-06-12T07:06:12.013Z,29.80
2023-06-12T07:08:38.684Z,30.00
2023-06-12T07:11:05.693Z,26.60
2023-06-12T07:13:32.467Z,27.60
2023-06-12T07:16:01.779Z,25.60
2023-06-12T07:18:28.866Z,23.80
2023-06-12T07:20:55.564Z,23.40
2023-06-12T07:23:22.501Z,22.20
2023-06-12T07:25:49.201Z,21.60
2023-06-12T07:28:15.869Z,21.80
2023-06-12T07:30:42.870Z,20.80
2023-06-12T07:33:11.705Z,18.30
2023-06-12T07:35:38.412Z,17.10
2023-06-12T07:38:05.128Z,17.10
2023-06-12T07:40:31.812Z,18.40
2023-06-12T07:42:59.124Z,15.20
2023-06-12T07:45:25.893Z,14.70
2023-06-12T07:47:53.495Z,14.50
2023-06-12T07:50:20.430Z,15.30
2023-06-12T07:52:47.303Z,13.10
2023-06-12T07:55:15.766Z,13.10
2023-06-12T07:57:42.614Z,11.80
2023-06-12T08:00:10.095Z,9.90
2023-06-12T08:02:37.192Z,10.60
2023-06-12T08:05:04.390Z,10.10
2023-06-12T08:07:34.459Z,8.90
2023-06-12T08:10:01.625Z,7.60
2023-06-12T08:12:28.336Z,8.10
2023-06-12T08:14:55.940Z,7.60
2023-06-12T08:17:22.736Z,8.00
2023-06-12T08:19:49.609Z,5.00
2023-06-12T08:22:16.534Z,6.20
2023-06-12T08:24:45.176Z,5.70
2023-06-12T08:27:12.489Z,5.50
2023-06-12T08:29:41.124Z,4.60
2023-06-12T08:32:08.520Z,3.60
2023-06-12T08:34:35.314Z,1.80
2023-06-12T08:37:02.127Z,2.00
2023-06-12T08:39:28.886Z,1.20
2023-06-12T08:42:13.140Z,1.00
2023-06-12T08:44:44.004Z,1.00
2023-06-12T08:47:11.112Z,1.00
2023-06-12T08:49:38.692Z,1.00
2023-06-12T08:52:08.042Z,1.00
2023-06-12T08:54:35.564Z,1.00
2023-06-12T08:57:04.252Z,1.00
2023-06-12T08:59:31.142Z,1.00
2023-06-12T09:04:42.791Z,1.00
2023-06-12T09:07:09.902Z,1.00
2023-06-12T09:09:42.697Z,1.00
2023-06-12T09:12:14.178Z,1.00
2023-06-12T09:14:42.334Z,1.00
2023-06-12T09:17:09.777Z,1.00
2023-06-12T09:19:49.267Z,1.00
2023-06-12T09:22:16.205Z,1.00
2023-06-12T09:24:43.302Z,1.00
2023-06-12T09:27:10.302Z,1.00
2023-06-12T09:29:40.040Z,1.00
2023-06-12T09:32:10.463Z,1.00
2023-06-12T09:34:38.036Z,1.00
2023-06-12T09:37:10.796Z,1.00
2023-06-12T09:39:37.771Z,1.00
2023-06-12T09:42:04.857Z,1.00
2023-06-12T09:44:32.135Z,1.00
2023-06-12T09:47:02.983Z,1.00
2023-06-12T09:49:31.810Z,1.00
2023-06-12T09:52:04.802Z,1.00
2023-06-12T09:54:33.714Z,1.00
2023-06-12T09:57:05.022Z,1.00
2023-06-12T09:59:38.070Z,1.00
2023-06-12T10:02:15.424Z,1.00
2023-06-12T10:05:02.422Z,1.00
2023-06-12T10:07:32.509Z,1.00
2023-06-12T10:10:03.043Z,1.00
2023-06-12T10:12:32.415Z,1.00
2023-06-12T10:15:00.632Z,1.00
2023-06-12T10:17:32.113Z,1.00
2023-06-12T10:20:02.329Z,1.00
2023-06-12T10:22:29.532Z,1.00
2023-06-12T10:24:58.827Z,1.00
2023-06-12T10:27:27.035Z,1.00
2023-06-12T10:29:58.788Z,1.00
2023-06-12T10:32:31.582Z,1.00
2023-06-12T10:34:59.125Z,1.00
2023-06-12T10:37:32.449Z,1.00
2023-06-12T10:40:12.361Z,1.00
2023-06-12T10:42:56.753Z,1.00
2023-06-12T10:45:35.027Z,1.00
2023-06-12T10:48:09.426Z,1.00
2023-06-12T10:50:39.203Z,1.00
2023-06-12T10:53:09.185Z,1.00
2023-06-12T10:55:37.925Z,1.00
2023-06-12T10:58:06.982Z,1.00
2023-06-12T11:00:39.019Z,1.00
2023-06-12T11:03:08.327Z,1.00
2023-06-12T11:05:36.056Z,1.00
2023-06-12T11:08:10.004Z,1.00
2023-06-12T11:10:37.237Z,1.00
2023-06-12T11:13:04.284Z,1.00
2023-06-12T11:15:44.023Z,1.00
2023-06-12T11:18:12.279Z,1.00
2023-06-12T11:20:39.977Z,1.00
2023-06-12T11:23:07.369Z,1.00
2023-06-12T11:26:08.795Z,1.00
2023-06-12T11:28:35.872Z,1.00
2023-06-12T11:31:11.366Z,1.00
2023-06-12T11:33:39.819Z,1.00
2023-06-12T11:36:07.138Z,1.00
2023-06-12T11:41:05.287Z,1.00
2023-06-12T11:43:33.146Z,1.00
2023-06-12T11:46:04.605Z,1.00
2023-06-12T11:51:03.629Z,1.00
2023-06-12T11:53:35.295Z,1.00
2023-06-12T11:58:41.821Z,1.00
2023-06-12T12:01:24.530Z,1.00
2023-06-12T12:03:56.789Z,1.00
2023-06-12T12:06:24.367Z,1.00
2023-06-12T12:08:59.416Z,1.00
2023-06-12T12:11:34.080Z,1.00
2023-06-12T12:14:03.104Z,1.00
2023-06-12T12:16:38.216Z,1.00
2023-06-12T12:19:19.164Z,1.00
2023-06-12T12:21:47.778Z,1.00
2023-06-12T12:24:15.374Z,1.00
2023-06-12T12:26:52.983Z,1.00
2023-06-12T12:29:21.127Z,1.00
2023-06-12T12:31:48.438Z,1.00
2023-06-12T12:34:15.953Z,1.00
2023-06-12T12:36:43.776Z,1.00
2023-06-12T12:39:11.331Z,1.00
2023-06-12T12:41:38.561Z,1.00
2023-06-12T12:44:05.677Z,1.00
2023-06-12T12:46:33.291Z,1.00
2023-06-12T12:49:00.463Z,1.00
2023-06-12T12:51:27.696Z,1.00
2023-06-12T12:53:55.078Z,1.00
2023-06-12T12:56:22.016Z,1.00
2023-06-12T12:58:50.925Z,1.00
2023-06-12T13:01:18.088Z,1.00
2023-06-12T13:03:45.540Z,1.00
2023-06-12T13:06:12.548Z,1.00
2023-06-12T13:08:40.213Z,1.00
2023-06-12T13:11:07.401Z,1.00
2023-06-12T13:13:34.465Z,1.00
2023-06-12T13:16:02.636Z,1.00
2023-06-12T13:18:29.821Z,1.00
2023-06-12T13:20:56.856Z,1.00
2023-06-12T13:23:24.205Z,1.00
2023-06-12T13:25:52.019Z,1.00
2023-06-12T13:28:19.101Z,1.00
2023-06-12T13:30:46.510Z,1.00
2023-06-12T13:33:13.657Z,1.00
2023-06-12T13:35:40.625Z,1.00
2023-06-12T13:38:07.884Z,1.00
2023-06-12T13:40:35.468Z,1.00
2023-06-12T13:43:02.375Z,1.00
2023-06-12T13:45:29.374Z,1.00
2023-06-12T13:47:56.619Z,1.00
2023-06-12T13:50:23.692Z,1.00
2023-06-12T13:52:51.066Z,1.00
2023-06-12T13:55:18.376Z,1.00
2023-06-12T13:57:45.480Z,1.00
2023-06-12T14:00:13.608Z,1.00
2023-06-12T14:02:41.499Z,1.00
2023-06-12T14:05:10.873Z,1.00
2023-06-12T14:07:38.459Z,1.00
2023-06-12T14:10:08.775Z,1.00
2023-06-12T14:12:36.298Z,1.00
2023-06-12T14:15:05.537Z,1.00
2023-06-12T14:17:33.323Z,1.00
2023-06-12T14:20:00.942Z,1.00
2023-06-12T14:22:29.027Z,1.00
2023-06-12T14:24:56.040Z,1.00
2023-06-12T14:27:23.314Z,1.00
2023-06-12T14:29:50.409Z,1.00
2023-06-12T14:32:17.580Z,1.00
2023-06-12T14:34:44.678Z,1.00
2023-06-12T14:37:11.777Z,1.00
2023-06-12T14:39:39.504Z,1.00
2023-06-12T14:42:06.610Z,1.00
2023-06-12T14:44:33.674Z,1.00
2023-06-12T14:47:00.776Z,1.00
2023-06-12T14:49:27.895Z,1.00
2023-06-12T14:51:54.833Z,1.00
2023-06-12T14:54:21.762Z,1.00
2023-06-12T14:56:48.900Z,1.00
2023-06-12T14:59:15.939Z,1.00
2023-06-12T15:01:43.119Z,1.00
2023-06-12T15:04:10.129Z,1.00
2023-06-12T15:06:37.060Z,1.00
2023-06-12T15:09:03.941Z,1.00
2023-06-12T15:11:31.193Z,1.00
2023-06-12T15:13:58.428Z,1.00
2023-06-12T15:16:25.577Z,1.00
2023-06-12T15:18:52.872Z,1.00
2023-06-12T15:21:21.787Z,1.00
2023-06-12T15:23:49.020Z,1.00
2023-06-12T15:26:16.225Z,1.00
2023-06-12T15:28:43.489Z,1.00
2023-06-12T15:31:10.732Z,1.00
2023-06-12T15:33:38.108Z,1.00
2023-06-12T15:36:07.984Z,1.00
2023-06-12T15:38:50.183Z,1.00
2023-06-12T15:41:17.260Z,1.00
2023-06-12T15:43:44.628Z,1.00
2023-06-12T15:46:11.830Z,1.00
2023-06-12T15:48:43.747Z,1.00
2023-06-12T15:51:12.297Z,1.00
2023-06-12T15:53:40.429Z,1.00
2023-06-12T15:56:10.908Z,1.00
2023-06-12T15:58:39.032Z,1.00
2023-06-12T16:01:06.202Z,1.00
2023-06-12T16:03:33.965Z,1.00
2023-06-12T16:06:01.371Z,1.00
2023-06-12T16:08:28.568Z,1.00
2023-06-12T16:10:55.523Z,1.00
2023-06-12T16:13:22.454Z,1.00
2023-06-12T16:15:49.415Z,1.00
2023-06-12T16:18:18.518Z,1.00
2023-06-12T16:20:45.926Z,1.00
2023-06-12T16:23:18.601Z,1.00
2023-06-12T16:25:46.089Z,1.00
2023-06-12T16:28:13.796Z,1.00
2023-06-12T16:30:40.828Z,1.00
2023-06-12T16:33:07.924Z,1.00
2023-06-12T16:35:34.896Z,1.00
2023-06-12T16:38:01.928Z,1.00
2023-06-12T16:40:29.325Z,1.00
2023-06-12T16:42:57.889Z,1.00
2023-06-12T16:45:25.173Z,1.00
2023-06-12T16:47:52.144Z,1.00
2023-06-12T16:50:19.526Z,1.00
2023-06-12T16:52:46.480Z,1.00
2023-06-12T16:55:13.670Z,1.00
2023-06-12T16:57:40.953Z,1.00
2023-06-12T17:00:09.474Z,1.00
2023-06-12T17:02:36.875Z,1.00
2023-06-12T17:05:04.365Z,1.00
2023-06-12T17:07:31.793Z,1.00
2023-06-12T17:10:02.238Z,1.00
2023-06-12T17:12:29.429Z,1.00
2023-06-12T17:14:56.594Z,1.00
2023-06-12T17:17:24.070Z,1.00
2023-06-12T17:19:51.570Z,1.00
2023-06-12T17:22:18.728Z,1.00
2023-06-12T17:24:46.202Z,1.00
2023-06-12T17:27:13.299Z,1.00
2023-06-12T17:29:41.464Z,1.00
2023-06-12T17:32:09.525Z,1.00
2023-06-12T17:34:38.126Z,1.00
2023-06-12T17:37:05.621Z,1.00
2023-06-12T17:39:32.626Z,1.00
2023-06-12T17:41:59.678Z,1.00
2023-06-12T17:44:28.201Z,1.00
2023-06-12T17:46:55.422Z,1.00
2023-06-12T17:49:22.619Z,1.00
2023-06-12T17:51:50.150Z,1.00
2023-06-12T17:54:17.239Z,1.00
2023-06-12T17:56:44.931Z,1.00
2023-06-12T17:59:12.152Z,1.00
2023-06-12T18:01:39.243Z,1.00
2023-06-12T18:04:07.002Z,1.00
2023-06-12T18:06:34.379Z,1.00
2023-06-12T18:09:01.509Z,1.00
2023-06-12T18:11:28.690Z,1.00
2023-06-12T18:13:55.937Z,1.00
2023-06-12T18:16:23.343Z,1.00
2023-06-12T18:18:50.814Z,1.00
2023-06-12T18:21:18.024Z,1.00
2023-06-12T18:23:45.398Z,1.00
2023-06-12T18:26:12.684Z,1.00
2023-06-12T18:28:39.600Z,1.00
2023-06-12T18:31:06.626Z,1.00
2023-06-12T18:33:33.832Z,1.00
2023-06-12T18:36:00.943Z,1.00
2023-06-12T18:38:27.973Z,1.00
2023-06-12T18:40:55.056Z,1.00
2023-06-12T18:43:22.012Z,1.00
2023-06-12T18:45:49.188Z,1.00
2023-06-12T18:48:16.086Z,1.00
2023-06-12T18:50:43.012Z,1.00
2023-06-12T18:53:09.955Z,1.00
2023-06-12T18:55:40.524Z,1.00
2023-06-12T18:58:07.923Z,1.00
2023-06-12T19:00:34.845Z,1.00
2023-06-12T19:03:01.850Z,1.00
2023-06-12T19:05:29.443Z,1.00
2023-06-12T19:07:57.352Z,1.00
2023-06-12T19:10:27.411Z,1.00
2023-06-12T19:12:55.035Z,1.00
2023-06-12T19:15:22.142Z,1.00
2023-06-12T19:17:49.024Z,1.00
2023-06-12T19:20:16.160Z,1.00
2023-06-12T19:22:43.101Z,1.00
2023-06-12T19:25:10.112Z,1.00
2023-06-12T19:27:37.460Z,1.00
2023-06-12T19:30:05.170Z,1.00
2023-06-12T19:32:32.016Z,1.00
2023-06-12T19:34:58.824Z,1.00
2023-06-12T19:37:26.780Z,1.00
2023-06-12T19:39:54.039Z,1.00
2023-06-12T19:42:20.843Z,1.00
2023-06-12T19:44:47.629Z,1.00
2023-06-12T19:47:14.386Z,1.00
2023-06-12T19:49:41.152Z,1.00
2023-06-12T19:52:10.063Z,1.00
2023-06-12T19:54:37.307Z,1.00
2023-06-12T19:57:04.410Z,1.00
2023-06-12T19:59:37.188Z,1.00
2023-06-12T20:02:08.506Z,1.00
2023-06-12T20:04:38.062Z,1.00
2023-06-12T20:07:08.104Z,1.00
2023-06-12T20:09:35.063Z,1.00
2023-06-12T20:12:01.867Z,1.00
2023-06-12T20:14:28.615Z,1.00
2023-06-12T20:16:55.419Z,1.00
2023-06-12T20:19:22.826Z,1.00
2023-06-12T20:21:51.401Z,1.00
2023-06-12T20:24:21.281Z,1.00
2023-06-12T20:26:50.588Z,1.00
2023-06-12T20:29:17.392Z,1.00
2023-06-12T20:31:44.339Z,1.00
2023-06-12T20:34:11.121Z,1.00
2023-06-12T20:36:38.622Z,1.00
2023-06-12T20:39:09.104Z,1.00
2023-06-12T20:41:36.464Z,1.00
2023-06-12T20:44:03.278Z,1.00
2023-06-12T20:46:30.197Z,1.00
2023-06-12T20:48:57.073Z,1.00
2023-06-12T20:51:25.616Z,1.00
2023-06-12T20:53:54.181Z,1.00
2023-06-12T20:56:21.141Z,1.00
2023-06-12T20:58:47.958Z,1.00
2023-06-12T21:01:14.677Z,1.00
2023-06-12T21:03:41.506Z,1.00
2023-06-12T21:06:08.612Z,1.00
2023-06-12T21:08:37.550Z,1.00
2023-06-12T21:11:05.169Z,1.00
2023-06-12T21:13:31.991Z,1.00
2023-06-12T21:15:58.731Z,1.00
2023-06-12T21:18:25.744Z,1.00
2023-06-12T21:20:53.461Z,1.00
2023-06-12T21:23:20.630Z,1.00
2023-06-12T21:25:47.855Z,1.00
2023-06-12T21:28:14.577Z,1.00
2023-06-12T21:30:41.497Z,1.00
2023-06-12T21:33:08.332Z,1.00
2023-06-12T21:35:35.234Z,1.00
2023-06-12T21:38:01.990Z,1.00
2023-06-12T21:40:28.700Z,1.00
2023-06-12T21:42:55.472Z,1.00
2023-06-12T21:45:22.238Z,1.00
2023-06-12T21:47:49.095Z,1.00
2023-06-12T21:50:16.202Z,1.00
2023-06-12T21:52:43.672Z,1.00
2023-06-12T21:55:10.593Z,1.00
2023-06-12T21:57:37.601Z,1.00
2023-06-12T22:00:06.531Z,1.00
2023-06-12T22:02:34.056Z,1.00
2023-06-12T22:05:00.816Z,1.00
2023-06-12T22:07:27.541Z,1.00
2023-06-12T22:09:54.208Z,1.00
2023-06-12T22:12:21.043Z,1.00
2023-06-12T22:14:47.924Z,1.00
2023-06-12T22:17:14.967Z,1.00
2023-06-12T22:19:41.683Z,1.00
2023-06-12T22:22:08.543Z,1.00
2023-06-12T22:24:35.217Z,1.00
2023-06-12T22:27:01.912Z,1.00
2023-06-12T22:29:28.622Z,1.00
2023-06-12T22:31:55.689Z,1.00
2023-06-12T22:34:22.432Z,1.00
2023-06-12T22:36:49.172Z,1.00
2023-06-12T22:39:16.877Z,1.00
2023-06-12T22:41:43.733Z,1.00
2023-06-12T22:44:10.432Z,1.00
2023-06-12T22:46:38.005Z,1.00
2023-06-12T22:49:04.765Z,1.00
2023-06-12T22:51:31.518Z,1.00
2023-06-12T22:53:58.246Z,1.00
2023-06-12T22:56:25.067Z,1.00
2023-06-12T22:58:51.842Z,1.00
2023-06-12T23:01:18.843Z,1.00
2023-06-12T23:03:45.631Z,1.00
2023-06-12T23:06:12.990Z,1.00
2023-06-12T23:08:39.976Z,1.00
2023-06-12T23:11:09.713Z,1.00
2023-06-12T23:13:36.449Z,1.00
2023-06-12T23:16:03.446Z,1.00
2023-06-12T23:18:34.690Z,1.00
2023-06-12T23:21:02.576Z,1.00
2023-06-12T23:23:34.392Z,1.00
2023-06-12T23:26:02.665Z,1.00
2023-06-12T23:28:34.269Z,1.10
2023-06-12T23:31:01.506Z,1.80
2023-06-12T23:33:28.228Z,2.10
2023-06-12T23:35:56.150Z,2.30
2023-06-12T23:38:24.462Z,3.00
2023-06-12T23:40:51.423Z,3.50
2023-06-12T23:43:18.330Z,3.70
2023-06-12T23:45:45.046Z,4.30
2023-06-12T23:48:12.168Z,4.90
2023-06-12T23:50:38.853Z,5.80
2023-06-12T23:53:05.656Z,6.20
2023-06-12T23:55:32.331Z,6.80
2023-06-12T23:57:59.149Z,7.30
